Time;durP1;ratioP1;P1;durP2;ratioP2;P2;SDS_P1;SDS_P2;PMS_P1;PMS_P2;Temp;Humidity;BMP_temperature;BMP_pressure;BME280_temperature;BME280_humidity;BME280_pressure;Samples;Min_cycle;Max_cycle;Signal;HPM_P1;HPM_P2
2023/06/06 00:02:22;;;;;;;0.30;0.30;;;;;;;;;;5034309;28;20626;-79
2023/06/06 00:04:49;;;;;;;0.40;0.40;;;;;;;;;;5034390;28;20172;-80
2023/06/06 00:07:18;;;;;;;0.40;0.40;;;;;;;;;;5033441;28;20202;-79
2023/06/06 00:09:44;;;;;;;0.50;0.50;;;;;;;;;;5034769;28;20907;-81
2023/06/06 00:12:12;;;;;;;0.40;0.40;;;;;;;;;;5033396;28;20179;-80
2023/06/06 00:14:40;;;;;;;0.40;0.40;;;;;;;;;;5035131;28;20267;-80
2023/06/06 00:17:06;;;;;;;0.40;0.40;;;;;;;;;;5034034;28;20255;-80
2023/06/06 00:19:32;;;;;;;0.40;0.40;;;;;;;;;;5035333;28;20552;-80
2023/06/06 00:21:58;;;;;;;0.30;0.30;;;;;;;;;;5034767;28;20633;-81
2023/06/06 00:24:24;;;;;;;0.33;0.33;;;;;;;;;;5034786;28;20176;-81
2023/06/06 00:26:51;;;;;;;0.50;0.50;;;;;;;;;;5033602;28;20209;-81
2023/06/06 00:29:17;;;;;;;0.30;0.30;;;;;;;;;;5034083;28;20188;-81
2023/06/06 00:31:43;;;;;;;0.40;0.40;;;;;;;;;;5035583;28;20243;-81
2023/06/06 00:34:08;;;;;;;0.40;0.40;;;;;;;;;;5035190;28;20228;-81
2023/06/06 00:36:35;;;;;;;0.30;0.30;;;;;;;;;;5034155;28;20195;-80
2023/06/06 00:39:00;;;;;;;0.40;0.40;;;;;;;;;;5034970;28;20183;-80
2023/06/06 00:41:26;;;;;;;0.50;0.50;;;;;;;;;;5037350;28;20207;-80
2023/06/06 00:43:52;;;;;;;0.50;0.50;;;;;;;;;;5042493;28;20168;-79
2023/06/06 00:46:18;;;;;;;0.40;0.40;;;;;;;;;;5046901;28;20538;-78
2023/06/06 00:48:45;;;;;;;0.30;0.30;;;;;;;;;;5051760;28;20207;-78
2023/06/06 00:51:12;;;;;;;0.30;0.30;;;;;;;;;;5053423;28;20168;-79
2023/06/06 00:53:38;;;;;;;0.40;0.40;;;;;;;;;;5052944;28;20270;-78
2023/06/06 00:56:05;;;;;;;0.30;0.30;;;;;;;;;;5030476;28;20305;-80
2023/06/06 00:58:31;;;;;;;0.50;0.50;;;;;;;;;;5035490;28;20171;-80
2023/06/06 01:00:57;;;;;;;0.50;0.50;;;;;;;;;;5034888;28;20775;-81
2023/06/06 01:03:24;;;;;;;0.40;0.40;;;;;;;;;;5035096;28;20210;-80
2023/06/06 01:05:53;;;;;;;0.30;0.30;;;;;;;;;;5034366;28;20203;-81
2023/06/06 01:08:19;;;;;;;0.40;0.40;;;;;;;;;;5034430;28;20271;-81
2023/06/06 01:10:45;;;;;;;0.40;0.40;;;;;;;;;;5034935;28;20197;-80
2023/06/06 01:13:22;;;;;;;0.50;0.50;;;;;;;;;;5034336;28;20716;-81
2023/06/06 01:15:48;;;;;;;0.50;0.50;;;;;;;;;;5034249;28;20550;-80
2023/06/06 01:18:14;;;;;;;0.40;0.40;;;;;;;;;;5034454;28;20184;-80
2023/06/06 01:20:41;;;;;;;0.30;0.30;;;;;;;;;;5034703;28;20196;-81
2023/06/06 01:23:10;;;;;;;0.40;0.40;;;;;;;;;;5034708;28;20179;-81
2023/06/06 01:25:37;;;;;;;0.50;0.50;;;;;;;;;;5037830;28;20670;-81
2023/06/06 01:28:04;;;;;;;0.40;0.40;;;;;;;;;;5037999;28;20258;-81
2023/06/06 01:30:32;;;;;;;0.40;0.40;;;;;;;;;;5038512;28;20255;-81
2023/06/06 01:32:58;;;;;;;0.50;0.50;;;;;;;;;;5037760;28;20176;-81
2023/06/06 01:35:36;;;;;;;0.50;0.50;;;;;;;;;;5037782;28;20263;-81
2023/06/06 01:38:20;;;;;;;0.40;0.40;;;;;;;;;;5037402;28;20184;-81
2023/06/06 01:40:48;;;;;;;0.40;0.40;;;;;;;;;;5037656;28;20223;-81
2023/06/06 01:43:16;;;;;;;0.40;0.40;;;;;;;;;;5037324;28;20180;-81
2023/06/06 01:45:42;;;;;;;0.50;0.50;;;;;;;;;;5037159;28;20187;-81
2023/06/06 01:48:08;;;;;;;0.50;0.50;;;;;;;;;;5037704;28;20178;-81
2023/06/06 01:50:34;;;;;;;0.50;0.50;;;;;;;;;;5037749;28;20188;-83
2023/06/06 01:53:00;;;;;;;0.50;0.50;;;;;;;;;;5037057;28;20176;-81
2023/06/06 01:55:26;;;;;;;0.50;0.50;;;;;;;;;;5036947;28;20172;-81
2023/06/06 01:57:52;;;;;;;0.30;0.30;;;;;;;;;;5036903;28;20192;-81
2023/06/06 02:00:19;;;;;;;0.50;0.50;;;;;;;;;;5037556;28;20196;-81
2023/06/06 02:02:45;;;;;;;0.50;0.50;;;;;;;;;;5036804;28;20742;-82
2023/06/06 02:05:12;;;;;;;0.50;0.50;;;;;;;;;;5036933;28;20270;-81
2023/06/06 02:07:38;;;;;;;0.40;0.40;;;;;;;;;;5036768;28;20526;-81
2023/06/06 02:10:05;;;;;;;0.50;0.50;;;;;;;;;;5036541;28;20191;-81
2023/06/06 02:12:31;;;;;;;0.50;0.50;;;;;;;;;;5036883;28;20650;-81
2023/06/06 02:14:57;;;;;;;0.40;0.40;;;;;;;;;;5037308;28;20183;-82
2023/06/06 02:17:23;;;;;;;0.60;0.60;;;;;;;;;;5036314;28;20196;-81
2023/06/06 02:19:49;;;;;;;0.60;0.60;;;;;;;;;;5036954;28;20351;-80
2023/06/06 02:22:15;;;;;;;0.50;0.50;;;;;;;;;;5036613;28;20207;-81
2023/06/06 02:24:42;;;;;;;0.50;0.50;;;;;;;;;;5037945;28;20282;-82
2023/06/06 02:27:09;;;;;;;0.50;0.50;;;;;;;;;;5036553;28;20673;-80
2023/06/06 02:29:35;;;;;;;0.57;0.57;;;;;;;;;;5038482;28;20175;-81
2023/06/06 02:32:03;;;;;;;0.67;0.67;;;;;;;;;;5039116;28;20176;-82
2023/06/06 02:34:29;;;;;;;0.50;0.50;;;;;;;;;;5036134;28;20172;-81
2023/06/06 02:36:57;;;;;;;0.40;0.40;;;;;;;;;;5036347;28;20634;-82
2023/06/06 02:39:23;;;;;;;0.40;0.40;;;;;;;;;;5020545;28;20306;-81
2023/06/06 02:41:50;;;;;;;0.50;0.50;;;;;;;;;;5038065;28;20278;-81
2023/06/06 02:44:17;;;;;;;0.70;0.70;;;;;;;;;;5037136;28;20577;-81
2023/06/06 02:46:43;;;;;;;0.60;0.60;;;;;;;;;;5017783;28;20582;-81
2023/06/06 02:49:09;;;;;;;0.50;0.50;;;;;;;;;;5036892;28;20180;-82
2023/06/06 02:51:36;;;;;;;0.50;0.50;;;;;;;;;;5036367;28;20187;-81
2023/06/06 02:54:02;;;;;;;0.53;0.53;;;;;;;;;;5036252;28;20598;-80
2023/06/06 02:56:29;;;;;;;0.50;0.50;;;;;;;;;;5035479;28;20196;-81
2023/06/06 02:58:55;;;;;;;0.60;0.60;;;;;;;;;;5036370;28;20168;-81
2023/06/06 03:01:21;;;;;;;0.50;0.50;;;;;;;;;;5036032;28;20222;-81
2023/06/06 03:03:47;;;;;;;0.50;0.50;;;;;;;;;;5036909;28;20183;-81
2023/06/06 03:06:15;;;;;;;0.50;0.50;;;;;;;;;;5035483;28;20295;-81
2023/06/06 03:08:42;;;;;;;0.50;0.50;;;;;;;;;;5036085;28;20251;-81
2023/06/06 03:11:08;;;;;;;0.40;0.40;;;;;;;;;;5035948;28;20609;-80
2023/06/06 03:13:34;;;;;;;0.60;0.60;;;;;;;;;;5035925;28;20176;-80
2023/06/06 03:16:00;;;;;;;0.50;0.50;;;;;;;;;;5035382;28;20282;-81
2023/06/06 03:18:26;;;;;;;0.43;0.43;;;;;;;;;;5042036;28;20204;-80
2023/06/06 03:20:53;;;;;;;0.50;0.50;;;;;;;;;;5047968;28;20276;-80
2023/06/06 03:23:19;;;;;;;0.60;0.60;;;;;;;;;;5043862;28;20800;-80
2023/06/06 03:25:46;;;;;;;0.47;0.47;;;;;;;;;;5035009;28;20654;-81
2023/06/06 03:28:12;;;;;;;0.43;0.43;;;;;;;;;;5035729;28;20238;-81
2023/06/06 03:30:38;;;;;;;0.60;0.60;;;;;;;;;;5036444;28;20183;-80
2023/06/06 03:33:08;;;;;;;0.57;0.57;;;;;;;;;;5037816;28;20180;-81
2023/06/06 03:35:34;;;;;;;0.50;0.50;;;;;;;;;;5037611;28;20235;-80
2023/06/06 03:38:01;;;;;;;0.50;0.50;;;;;;;;;;5035848;28;20172;-80
2023/06/06 03:40:27;;;;;;;0.40;0.40;;;;;;;;;;5039373;28;20568;-80
2023/06/06 03:42:53;;;;;;;0.40;0.40;;;;;;;;;;5039708;28;20179;-81
2023/06/06 03:45:22;;;;;;;0.53;0.53;;;;;;;;;;5039414;28;20186;-80
2023/06/06 03:47:49;;;;;;;0.57;0.57;;;;;;;;;;5035322;28;20196;-78
2023/06/06 03:50:15;;;;;;;0.50;0.50;;;;;;;;;;5035412;28;20564;-80
2023/06/06 03:52:41;;;;;;;0.60;0.60;;;;;;;;;;5035190;28;20168;-79
2023/06/06 03:55:08;;;;;;;0.57;0.57;;;;;;;;;;5037001;28;20172;-82
2023/06/06 03:57:35;;;;;;;0.50;0.50;;;;;;;;;;5034744;28;20241;-79
2023/06/06 04:00:04;;;;;;;0.40;0.40;;;;;;;;;;5035366;28;20176;-79
2023/06/06 04:02:32;;;;;;;0.60;0.60;;;;;;;;;;5036086;28;20219;-81
2023/06/06 04:05:01;;;;;;;0.50;0.50;;;;;;;;;;5035372;28;20184;-79
2023/06/06 04:07:28;;;;;;;0.47;0.47;;;;;;;;;;5034776;28;20207;-80
2023/06/06 04:09:54;;;;;;;0.50;0.50;;;;;;;;;;5034490;28;20195;-79
2023/06/06 04:12:21;;;;;;;0.60;0.60;;;;;;;;;;5035311;28;20176;-80
2023/06/06 04:14:47;;;;;;;0.50;0.50;;;;;;;;;;5034553;28;20175;-79
2023/06/06 04:17:13;;;;;;;0.60;0.60;;;;;;;;;;5033912;28;20653;-79
2023/06/06 04:19:39;;;;;;;0.50;0.50;;;;;;;;;;5035792;28;20259;-78
2023/06/06 04:22:05;;;;;;;0.60;0.60;;;;;;;;;;5035952;28;20215;-80
2023/06/06 04:24:32;;;;;;;0.60;0.60;;;;;;;;;;5038824;28;20570;-78
2023/06/06 04:27:03;;;;;;;0.57;0.57;;;;;;;;;;5038325;28;20242;-79
2023/06/06 04:29:32;;;;;;;0.40;0.40;;;;;;;;;;5040047;28;20246;-78
2023/06/06 04:31:59;;;;;;;0.50;0.50;;;;;;;;;;5040482;28;20564;-78
2023/06/06 04:34:29;;;;;;;0.50;0.50;;;;;;;;;;5054351;28;20179;-79
2023/06/06 04:36:56;;;;;;;0.40;0.40;;;;;;;;;;5065266;28;20203;-79
2023/06/06 04:39:24;;;;;;;0.40;0.40;;;;;;;;;;5064987;28;20183;-80
2023/06/06 04:41:50;;;;;;;0.40;0.40;;;;;;;;;;5065242;28;20254;-80
2023/06/06 04:44:17;;;;;;;0.60;0.60;;;;;;;;;;5065186;28;20828;-79
2023/06/06 04:46:43;;;;;;;0.40;0.40;;;;;;;;;;5056412;28;20201;-81
2023/06/06 04:49:09;;;;;;;0.43;0.43;;;;;;;;;;5053150;28;20181;-80
2023/06/06 04:51:36;;;;;;;0.40;0.40;;;;;;;;;;5051289;28;20186;-81
2023/06/06 04:54:05;;;;;;;0.40;0.40;;;;;;;;;;5052822;28;20182;-80
2023/06/06 04:56:31;;;;;;;0.40;0.40;;;;;;;;;;5052408;28;20253;-80
2023/06/06 04:59:04;;;;;;;0.53;0.53;;;;;;;;;;5051837;28;20586;-81
2023/06/06 05:01:30;;;;;;;0.60;0.60;;;;;;;;;;5052865;28;20247;-81
2023/06/06 05:03:56;;;;;;;0.50;0.50;;;;;;;;;;5051772;28;20178;-80
2023/06/06 05:06:25;;;;;;;0.40;0.40;;;;;;;;;;5051334;28;20195;-81
2023/06/06 05:08:51;;;;;;;0.60;0.60;;;;;;;;;;5053419;28;20225;-81
2023/06/06 05:11:19;;;;;;;0.40;0.40;;;;;;;;;;5053403;28;20186;-82
2023/06/06 05:13:44;;;;;;;0.40;0.40;;;;;;;;;;5054904;28;20175;-81
2023/06/06 05:16:10;;;;;;;0.50;0.50;;;;;;;;;;5053827;28;20195;-82
2023/06/06 05:18:37;;;;;;;0.40;0.40;;;;;;;;;;5054518;28;20186;-82
2023/06/06 05:21:03;;;;;;;0.47;0.47;;;;;;;;;;5043741;28;20276;-82
2023/06/06 05:23:32;;;;;;;0.43;0.43;;;;;;;;;;5047334;28;20244;-81
2023/06/06 05:25:58;;;;;;;0.33;0.33;;;;;;;;;;5052928;28;20203;-82
2023/06/06 05:28:25;;;;;;;0.37;0.37;;;;;;;;;;5053150;28;20194;-82
2023/06/06 05:30:58;;;;;;;0.40;0.40;;;;;;;;;;5053117;28;20179;-82
2023/06/06 05:33:27;;;;;;;0.30;0.30;;;;;;;;;;5052356;28;20703;-82
2023/06/06 05:35:53;;;;;;;0.50;0.50;;;;;;;;;;5051382;28;20698;-82
2023/06/06 05:38:19;;;;;;;0.30;0.30;;;;;;;;;;5042460;28;20195;-84
2023/06/06 05:40:45;;;;;;;0.40;0.40;;;;;;;;;;5045703;28;20180;-82
2023/06/06 05:43:14;;;;;;;0.40;0.40;;;;;;;;;;5040164;28;20183;-82
2023/06/06 05:45:39;;;;;;;0.37;0.37;;;;;;;;;;5033681;28;20241;-83
2023/06/06 05:48:06;;;;;;;0.40;0.40;;;;;;;;;;5034274;28;20263;-85
2023/06/06 05:50:32;;;;;;;0.40;0.40;;;;;;;;;;5036807;28;20172;-84
2023/06/06 05:52:58;;;;;;;0.40;0.40;;;;;;;;;;5012615;28;20900;-80
2023/06/06 05:55:28;;;;;;;0.50;0.50;;;;;;;;;;5033272;28;20191;-81
2023/06/06 05:57:58;;;;;;;0.40;0.40;;;;;;;;;;5036668;28;20204;-82
2023/06/06 06:00:28;;;;;;;0.40;0.40;;;;;;;;;;5036439;28;20187;-83
2023/06/06 06:02:56;;;;;;;0.40;0.40;;;;;;;;;;5039828;28;20203;-81
2023/06/06 06:05:22;;;;;;;0.30;0.30;;;;;;;;;;5035314;28;20179;-82
2023/06/06 06:07:49;;;;;;;0.40;0.40;;;;;;;;;;5042563;28;20191;-81
2023/06/06 06:10:16;;;;;;;0.40;0.40;;;;;;;;;;5045547;28;20198;-79
2023/06/06 06:12:42;;;;;;;0.30;0.30;;;;;;;;;;5052724;28;20219;-80
2023/06/06 06:15:09;;;;;;;0.50;0.50;;;;;;;;;;5054174;28;20176;-81
2023/06/06 06:17:35;;;;;;;0.30;0.30;;;;;;;;;;5054899;28;20207;-81
2023/06/06 06:20:06;;;;;;;0.50;0.50;;;;;;;;;;5051040;28;20174;-81
2023/06/06 06:22:32;;;;;;;0.40;0.40;;;;;;;;;;5041033;28;20216;-81
2023/06/06 06:24:59;;;;;;;0.30;0.30;;;;;;;;;;5041037;28;20271;-81
2023/06/06 06:27:25;;;;;;;0.40;0.40;;;;;;;;;;5035656;28;20191;-81
2023/06/06 06:29:51;;;;;;;0.30;0.30;;;;;;;;;;5037986;28;20187;-83
2023/06/06 06:32:17;;;;;;;0.30;0.30;;;;;;;;;;5037972;28;20183;-82
2023/06/06 06:34:43;;;;;;;0.40;0.40;;;;;;;;;;5037351;28;20884;-82
2023/06/06 06:37:09;;;;;;;0.20;0.20;;;;;;;;;;5038415;28;20279;-82
2023/06/06 06:39:35;;;;;;;0.30;0.30;;;;;;;;;;5038604;28;20241;-81
2023/06/06 06:42:01;;;;;;;0.30;0.30;;;;;;;;;;5042996;28;20218;-81
2023/06/06 06:44:27;;;;;;;0.30;0.30;;;;;;;;;;5051131;28;20171;-81
2023/06/06 06:46:53;;;;;;;0.30;0.30;;;;;;;;;;5055360;28;20203;-82
2023/06/06 06:49:20;;;;;;;0.27;0.27;;;;;;;;;;5045953;28;20177;-81
2023/06/06 06:51:47;;;;;;;0.30;0.30;;;;;;;;;;5045714;28;20175;-82
2023/06/06 06:54:15;;;;;;;0.30;0.30;;;;;;;;;;5045681;28;20550;-81
2023/06/06 06:56:42;;;;;;;0.30;0.30;;;;;;;;;;5067451;28;20191;-81
2023/06/06 06:59:13;;;;;;;0.27;0.27;;;;;;;;;;5078986;28;20168;-82
2023/06/06 07:01:40;;;;;;;0.30;0.30;;;;;;;;;;5078516;28;20306;-79
2023/06/06 07:04:06;;;;;;;0.30;0.30;;;;;;;;;;5078699;28;20190;-82
2023/06/06 07:06:33;;;;;;;0.40;0.40;;;;;;;;;;5077820;28;20195;-82
2023/06/06 07:09:00;;;;;;;0.37;0.37;;;;;;;;;;5042727;28;20658;-82
2023/06/06 07:11:26;;;;;;;0.40;0.40;;;;;;;;;;5039188;28;20192;-82
2023/06/06 07:13:52;;;;;;;0.30;0.30;;;;;;;;;;5040416;28;20172;-82
2023/06/06 07:16:20;;;;;;;0.30;0.30;;;;;;;;;;5041627;28;20199;-81
2023/06/06 07:18:47;;;;;;;0.30;0.30;;;;;;;;;;5042519;28;20191;-83
2023/06/06 07:21:13;;;;;;;0.40;0.40;;;;;;;;;;5040106;28;20572;-82
2023/06/06 07:23:39;;;;;;;0.30;0.30;;;;;;;;;;5038905;28;20172;-82
2023/06/06 07:26:06;;;;;;;0.30;0.30;;;;;;;;;;5038199;28;20207;-82
2023/06/06 07:28:33;;;;;;;0.37;0.37;;;;;;;;;;5037256;28;20590;-83
2023/06/06 07:30:59;;;;;;;0.30;0.30;;;;;;;;;;5037816;28;20179;-81
2023/06/06 07:33:26;;;;;;;0.33;0.33;;;;;;;;;;5056373;28;20668;-82
2023/06/06 07:35:52;;;;;;;0.30;0.30;;;;;;;;;;5053935;28;20196;-81
2023/06/06 07:38:18;;;;;;;0.33;0.33;;;;;;;;;;5042778;28;20180;-83
2023/06/06 07:40:44;;;;;;;0.30;0.30;;;;;;;;;;5041575;28;20176;-82
2023/06/06 07:43:11;;;;;;;0.30;0.30;;;;;;;;;;5040448;28;20183;-82
2023/06/06 07:45:37;;;;;;;0.30;0.30;;;;;;;;;;5039273;28;20199;-84
2023/06/06 07:48:03;;;;;;;0.40;0.40;;;;;;;;;;5039825;28;20665;-83
2023/06/06 07:50:30;;;;;;;0.30;0.30;;;;;;;;;;5039155;28;20188;-82
2023/06/06 07:52:56;;;;;;;0.20;0.20;;;;;;;;;;5038433;28;20188;-82
2023/06/06 07:55:24;;;;;;;0.30;0.30;;;;;;;;;;5036950;28;20183;-82
2023/06/06 07:57:51;;;;;;;0.23;0.23;;;;;;;;;;5043291;28;20199;-83
2023/06/06 08:00:17;;;;;;;0.33;0.33;;;;;;;;;;5037243;28;20176;-83
2023/06/06 08:02:43;;;;;;;0.20;0.20;;;;;;;;;;5034647;28;20212;-83
2023/06/06 08:05:10;;;;;;;0.20;0.20;;;;;;;;;;5034276;28;20261;-82
2023/06/06 08:07:38;;;;;;;0.30;0.30;;;;;;;;;;5033707;28;20195;-81
2023/06/06 08:10:05;;;;;;;0.30;0.30;;;;;;;;;;5037008;28;20661;-81
2023/06/06 08:12:31;;;;;;;0.30;0.30;;;;;;;;;;5040779;28;20591;-81
2023/06/06 08:14:57;;;;;;;0.30;0.30;;;;;;;;;;5043254;28;20240;-82
2023/06/06 08:17:23;;;;;;;0.20;0.20;;;;;;;;;;5044755;28;20509;-82
2023/06/06 08:19:49;;;;;;;0.30;0.30;;;;;;;;;;5053238;28;20255;-81
2023/06/06 08:22:15;;;;;;;0.20;0.20;;;;;;;;;;5054192;28;20251;-82
2023/06/06 08:24:42;;;;;;;0.23;0.23;;;;;;;;;;5053667;28;20222;-82
2023/06/06 08:27:08;;;;;;;0.30;0.30;;;;;;;;;;5047519;28;20286;-81
2023/06/06 08:29:34;;;;;;;0.30;0.30;;;;;;;;;;5045663;28;20176;-81
2023/06/06 08:32:01;;;;;;;0.30;0.30;;;;;;;;;;5036643;28;20192;-82
2023/06/06 08:34:28;;;;;;;0.37;0.37;;;;;;;;;;5038541;28;20202;-82
2023/06/06 08:36:54;;;;;;;0.30;0.30;;;;;;;;;;5043090;28;20199;-82
2023/06/06 08:39:21;;;;;;;0.30;0.30;;;;;;;;;;5044055;28;20206;-82
2023/06/06 08:41:51;;;;;;;0.20;0.20;;;;;;;;;;5042143;28;20325;-82
2023/06/06 08:44:19;;;;;;;0.33;0.33;;;;;;;;;;5044024;28;20266;-81
2023/06/06 08:46:47;;;;;;;0.30;0.30;;;;;;;;;;5035963;28;20203;-82
2023/06/06 08:49:13;;;;;;;0.30;0.30;;;;;;;;;;5040139;28;20183;-81
2023/06/06 08:51:39;;;;;;;0.47;0.47;;;;;;;;;;5060420;28;20183;-81
2023/06/06 08:54:05;;;;;;;0.40;0.40;;;;;;;;;;5060791;28;20175;-80
2023/06/06 08:56:31;;;;;;;0.30;0.30;;;;;;;;;;5055037;28;20195;-81
2023/06/06 08:58:57;;;;;;;0.33;0.33;;;;;;;;;;5051772;28;20181;-81
2023/06/06 09:01:23;;;;;;;0.40;0.40;;;;;;;;;;5052213;28;20221;-83
2023/06/06 09:03:52;;;;;;;0.30;0.30;;;;;;;;;;5046351;28;20194;-81
2023/06/06 09:06:19;;;;;;;0.40;0.40;;;;;;;;;;5032156;28;20204;-82
2023/06/06 09:08:45;;;;;;;0.40;0.40;;;;;;;;;;5043763;28;20224;-83
2023/06/06 09:11:11;;;;;;;0.40;0.40;;;;;;;;;;5055253;28;20653;-83
2023/06/06 09:13:40;;;;;;;0.40;0.40;;;;;;;;;;5036902;28;20263;-82
2023/06/06 09:16:06;;;;;;;0.30;0.30;;;;;;;;;;5036049;28;20204;-83
2023/06/06 09:18:32;;;;;;;0.37;0.37;;;;;;;;;;5039490;28;20203;-83
2023/06/06 09:20:58;;;;;;;0.30;0.30;;;;;;;;;;5032490;28;20219;-83
2023/06/06 09:23:30;;;;;;;0.40;0.40;;;;;;;;;;5047508;28;20210;-83
2023/06/06 09:25:56;;;;;;;0.50;0.50;;;;;;;;;;5031991;28;20216;-83
2023/06/06 09:28:35;;;;;;;0.40;0.40;;;;;;;;;;5038018;28;20179;-83
2023/06/06 09:31:01;;;;;;;0.30;0.30;;;;;;;;;;5043876;28;20175;-83
2023/06/06 09:33:28;;;;;;;0.50;0.50;;;;;;;;;;5045115;28;20286;-82
2023/06/06 09:35:54;;;;;;;0.30;0.30;;;;;;;;;;5045991;28;20207;-83
2023/06/06 09:38:20;;;;;;;0.40;0.40;;;;;;;;;;5052805;28;20175;-83
2023/06/06 09:40:51;;;;;;;0.40;0.40;;;;;;;;;;5042140;28;20187;-83
2023/06/06 09:43:23;;;;;;;0.50;0.50;;;;;;;;;;5045503;28;20250;-84
2023/06/06 09:45:52;;;;;;;0.40;0.40;;;;;;;;;;5018452;28;20180;-83
2023/06/06 09:48:22;;;;;;;0.40;0.40;;;;;;;;;;5041364;28;20187;-83
2023/06/06 09:50:48;;;;;;;0.43;0.43;;;;;;;;;;5045905;28;20542;-82
2023/06/06 09:53:14;;;;;;;0.40;0.40;;;;;;;;;;5049379;28;20179;-83
2023/06/06 09:55:44;;;;;;;0.50;0.50;;;;;;;;;;5038720;28;20243;-84
2023/06/06 09:58:15;;;;;;;0.47;0.47;;;;;;;;;;5047930;28;20186;-83
2023/06/06 10:00:42;;;;;;;0.40;0.40;;;;;;;;;;5038071;28;20202;-83
2023/06/06 10:03:08;;;;;;;0.30;0.30;;;;;;;;;;5035116;28;20194;-83
2023/06/06 10:05:35;;;;;;;0.43;0.43;;;;;;;;;;5036184;28;20176;-83
2023/06/06 10:08:01;;;;;;;0.57;0.57;;;;;;;;;;5038466;28;20187;-83
2023/06/06 10:10:27;;;;;;;0.40;0.40;;;;;;;;;;5017526;28;20231;-83
2023/06/06 10:12:56;;;;;;;0.40;0.40;;;;;;;;;;5035948;28;20176;-82
2023/06/06 10:15:22;;;;;;;0.47;0.47;;;;;;;;;;5035123;28;20275;-83
2023/06/06 10:17:49;;;;;;;0.40;0.40;;;;;;;;;;5035539;28;20200;-84
2023/06/06 10:20:16;;;;;;;0.50;0.50;;;;;;;;;;5035620;28;20278;-83
2023/06/06 10:22:42;;;;;;;0.50;0.50;;;;;;;;;;5036019;28;20589;-83
2023/06/06 10:25:11;;;;;;;0.50;0.50;;;;;;;;;;5018473;28;20180;-83
2023/06/06 10:27:40;;;;;;;0.50;0.50;;;;;;;;;;5018237;28;20230;-82
2023/06/06 10:30:12;;;;;;;0.40;0.40;;;;;;;;;;5051030;28;20655;-85
2023/06/06 10:32:41;;;;;;;0.37;0.37;;;;;;;;;;5035315;28;20195;-84
2023/06/06 10:35:08;;;;;;;0.60;0.60;;;;;;;;;;5048195;28;20175;-84
2023/06/06 10:37:38;;;;;;;0.50;0.50;;;;;;;;;;5038680;28;20345;-84
2023/06/06 10:40:05;;;;;;;0.40;0.40;;;;;;;;;;5025139;28;20175;-83
2023/06/06 10:42:38;;;;;;;0.30;0.30;;;;;;;;;;5057476;28;20225;-84
2023/06/06 10:45:04;;;;;;;0.43;0.43;;;;;;;;;;5056556;28;20720;-84
2023/06/06 10:47:32;;;;;;;0.37;0.37;;;;;;;;;;5055167;28;20199;-84
2023/06/06 10:50:13;;;;;;;0.40;0.40;;;;;;;;;;5055037;28;20175;-83
2023/06/06 10:52:46;;;;;;;0.63;0.63;;;;;;;;;;5045749;28;20222;-82
2023/06/06 10:55:18;;;;;;;0.40;0.40;;;;;;;;;;5035203;28;20176;-82
2023/06/06 10:57:50;;;;;;;0.50;0.50;;;;;;;;;;5034441;28;20196;-82
2023/06/06 11:00:17;;;;;;;0.40;0.40;;;;;;;;;;5034713;28;20234;-81
2023/06/06 11:02:46;;;;;;;0.40;0.40;;;;;;;;;;5037427;28;20207;-81
2023/06/06 11:05:12;;;;;;;0.37;0.37;;;;;;;;;;5044908;28;20258;-82
2023/06/06 11:07:39;;;;;;;0.70;0.70;;;;;;;;;;5052488;28;20222;-81
2023/06/06 11:10:06;;;;;;;0.50;0.50;;;;;;;;;;5044701;28;20278;-81
2023/06/06 11:12:32;;;;;;;0.40;0.40;;;;;;;;;;5063038;28;20182;-82
2023/06/06 11:15:01;;;;;;;0.30;0.30;;;;;;;;;;5058081;28;20175;-81
2023/06/06 11:17:32;;;;;;;0.40;0.40;;;;;;;;;;5054878;28;20253;-79
2023/06/06 11:20:00;;;;;;;0.40;0.40;;;;;;;;;;5035997;28;20187;-80
2023/06/06 11:22:27;;;;;;;0.60;0.60;;;;;;;;;;5055167;28;20221;-79
2023/06/06 11:24:56;;;;;;;0.50;0.50;;;;;;;;;;5055079;28;20185;-80
2023/06/06 11:27:22;;;;;;;0.50;0.50;;;;;;;;;;5054495;28;20257;-80
2023/06/06 11:29:48;;;;;;;0.50;0.50;;;;;;;;;;5054476;28;20179;-80
2023/06/06 11:32:15;;;;;;;0.60;0.60;;;;;;;;;;5060085;28;20642;-81
2023/06/06 11:34:41;;;;;;;0.50;0.50;;;;;;;;;;5059717;28;20175;-80
2023/06/06 11:37:08;;;;;;;0.38;0.38;;;;;;;;;;5047434;28;20261;-80
2023/06/06 11:39:34;;;;;;;0.50;0.50;;;;;;;;;;5022356;28;20176;-80
2023/06/06 11:42:01;;;;;;;0.50;0.50;;;;;;;;;;5037508;28;20219;-80
2023/06/06 11:44:35;;;;;;;0.47;0.47;;;;;;;;;;5035325;28;20259;-80
2023/06/06 11:47:03;;;;;;;0.30;0.30;;;;;;;;;;5032035;28;20199;-79
2023/06/06 11:49:29;;;;;;;0.30;0.30;;;;;;;;;;5042660;28;20172;-79
2023/06/06 11:52:03;;;;;;;0.40;0.40;;;;;;;;;;5053644;28;20187;-80
2023/06/06 11:54:53;;;;;;;0.40;0.40;;;;;;;;;;5042653;28;20592;-81
2023/06/06 11:57:20;;;;;;;0.43;0.43;;;;;;;;;;5039189;28;20211;-81
2023/06/06 11:59:53;;;;;;;0.30;0.30;;;;;;;;;;5044200;28;20209;-80
2023/06/06 12:02:19;;;;;;;0.30;0.30;;;;;;;;;;5042652;28;20242;-80
2023/06/06 12:04:48;;;;;;;0.40;0.40;;;;;;;;;;5041797;28;20172;-81
2023/06/06 12:07:15;;;;;;;0.30;0.30;;;;;;;;;;5024018;28;20204;-81
2023/06/06 12:09:41;;;;;;;0.20;0.20;;;;;;;;;;5039820;28;20184;-79
2023/06/06 12:12:10;;;;;;;0.30;0.30;;;;;;;;;;5048095;28;20716;-80
2023/06/06 12:14:36;;;;;;;0.30;0.30;;;;;;;;;;5048703;28;20226;-80
2023/06/06 12:17:03;;;;;;;0.30;0.30;;;;;;;;;;5049206;28;20509;-79
2023/06/06 12:19:29;;;;;;;0.40;0.40;;;;;;;;;;5062816;28;20780;-80
2023/06/06 12:21:54;;;;;;;0.30;0.30;;;;;;;;;;5062120;28;20210;-79
2023/06/06 12:24:24;;;;;;;0.30;0.30;;;;;;;;;;5062578;28;20175;-81
2023/06/06 12:26:55;;;;;;;0.37;0.37;;;;;;;;;;5052864;28;20210;-81
2023/06/06 12:29:23;;;;;;;0.40;0.40;;;;;;;;;;5043990;28;20233;-80
2023/06/06 12:31:50;;;;;;;0.30;0.30;;;;;;;;;;5035286;28;20183;-81
2023/06/06 12:34:17;;;;;;;0.30;0.30;;;;;;;;;;5045354;28;20191;-79
2023/06/06 12:36:43;;;;;;;0.27;0.27;;;;;;;;;;5014081;28;20206;-81
2023/06/06 12:39:12;;;;;;;0.50;0.50;;;;;;;;;;5032330;28;20188;-80
2023/06/06 12:41:41;;;;;;;0.40;0.40;;;;;;;;;;5033047;28;20211;-81
2023/06/06 12:44:11;;;;;;;0.40;0.40;;;;;;;;;;5032720;28;20168;-81
2023/06/06 12:46:40;;;;;;;0.43;0.43;;;;;;;;;;5032283;28;20199;-80
2023/06/06 12:49:07;;;;;;;0.50;0.50;;;;;;;;;;5032664;28;20195;-81
2023/06/06 12:51:34;;;;;;;0.40;0.40;;;;;;;;;;5014971;28;20208;-81
2023/06/06 12:54:00;;;;;;;0.40;0.40;;;;;;;;;;5032228;28;20545;-81
2023/06/06 12:56:29;;;;;;;0.30;0.30;;;;;;;;;;5032252;28;20203;-81
2023/06/06 12:58:59;;;;;;;0.40;0.40;;;;;;;;;;5032694;28;20176;-84
2023/06/06 13:01:26;;;;;;;0.20;0.20;;;;;;;;;;5033156;28;20204;-85
2023/06/06 13:03:52;;;;;;;0.30;0.30;;;;;;;;;;5033169;28;20175;-83
2023/06/06 13:06:18;;;;;;;0.30;0.30;;;;;;;;;;5032031;28;20203;-83
2023/06/06 13:08:45;;;;;;;0.40;0.40;;;;;;;;;;5033314;28;20199;-84
2023/06/06 13:11:11;;;;;;;0.50;0.50;;;;;;;;;;5036001;28;20199;-82
2023/06/06 13:13:37;;;;;;;0.30;0.30;;;;;;;;;;5052497;28;20194;-85
2023/06/06 13:16:04;;;;;;;0.50;0.50;;;;;;;;;;5055386;28;20282;-83
2023/06/06 13:18:31;;;;;;;0.40;0.40;;;;;;;;;;5055664;28;20226;-85
2023/06/06 13:20:58;;;;;;;0.40;0.40;;;;;;;;;;5061413;28;20175;-81
2023/06/06 13:23:26;;;;;;;0.30;0.30;;;;;;;;;;5032359;28;20179;-82
2023/06/06 13:25:52;;;;;;;0.40;0.40;;;;;;;;;;5046872;28;20190;-81
2023/06/06 13:28:18;;;;;;;0.50;0.50;;;;;;;;;;5041050;28;20766;-82
2023/06/06 13:30:44;;;;;;;0.40;0.40;;;;;;;;;;5044184;28;20175;-82
2023/06/06 13:33:10;;;;;;;0.30;0.30;;;;;;;;;;5047435;28;20186;-83
2023/06/06 13:35:36;;;;;;;0.43;0.43;;;;;;;;;;5049201;28;20211;-84
2023/06/06 13:38:02;;;;;;;0.40;0.40;;;;;;;;;;5045437;28;20241;-83
2023/06/06 13:40:28;;;;;;;0.40;0.40;;;;;;;;;;5048389;28;20552;-83
2023/06/06 13:42:54;;;;;;;0.50;0.50;;;;;;;;;;5046135;28;20200;-84
2023/06/06 13:45:20;;;;;;;0.40;0.40;;;;;;;;;;5048955;28;20168;-82
2023/06/06 13:47:46;;;;;;;0.60;0.60;;;;;;;;;;5057243;28;20210;-83
2023/06/06 13:50:13;;;;;;;0.50;0.50;;;;;;;;;;5057877;28;20638;-80
2023/06/06 13:52:42;;;;;;;0.60;0.60;;;;;;;;;;5039721;28;20191;-81
2023/06/06 13:55:08;;;;;;;0.43;0.43;;;;;;;;;;5058503;28;20186;-82
2023/06/06 13:57:40;;;;;;;0.47;0.47;;;;;;;;;;5056975;28;20286;-82
2023/06/06 14:00:08;;;;;;;0.30;0.30;;;;;;;;;;5042748;28;20237;-81
2023/06/06 14:02:34;;;;;;;0.40;0.40;;;;;;;;;;5020890;28;20595;-82
2023/06/06 14:05:00;;;;;;;0.40;0.40;;;;;;;;;;5035959;28;20241;-80
2023/06/06 14:07:26;;;;;;;0.37;0.37;;;;;;;;;;5038893;28;20215;-80
2023/06/06 14:09:52;;;;;;;0.40;0.40;;;;;;;;;;5057524;28;20178;-80
2023/06/06 14:12:18;;;;;;;0.40;0.40;;;;;;;;;;5079372;28;20198;-81
2023/06/06 14:14:46;;;;;;;0.30;0.30;;;;;;;;;;5064995;28;20188;-82
2023/06/06 14:17:12;;;;;;;0.40;0.40;;;;;;;;;;5064502;28;20199;-82
2023/06/06 14:19:42;;;;;;;0.40;0.40;;;;;;;;;;5057413;28;20175;-82
2023/06/06 14:22:23;;;;;;;0.30;0.30;;;;;;;;;;5037799;28;20585;-81
2023/06/06 14:24:50;;;;;;;0.20;0.20;;;;;;;;;;5051513;28;20211;-81
2023/06/06 14:27:16;;;;;;;0.43;0.43;;;;;;;;;;5055899;28;20206;-83
2023/06/06 14:29:43;;;;;;;0.43;0.43;;;;;;;;;;5055846;28;20217;-80
2023/06/06 14:32:11;;;;;;;0.40;0.40;;;;;;;;;;5045541;28;20389;-80
2023/06/06 14:34:47;;;;;;;0.30;0.30;;;;;;;;;;5048531;28;20184;-82
2023/06/06 14:37:13;;;;;;;0.30;0.30;;;;;;;;;;5038309;28;20199;-82
2023/06/06 14:39:39;;;;;;;0.20;0.20;;;;;;;;;;5041585;28;20278;-82
2023/06/06 14:42:07;;;;;;;0.40;0.40;;;;;;;;;;5036673;28;20254;-83
2023/06/06 14:44:36;;;;;;;0.40;0.40;;;;;;;;;;5036670;28;20187;-82